Time;durP1;ratioP1;P1;durP2;ratioP2;P2;SDS_P1;SDS_P2;PMS_P1;PMS_P2;Temp;Humidity;BMP_temperature;BMP_pressure;BME280_temperature;BME280_humidity;BME280_pressure;Samples;Min_cycle;Max_cycle;Signal;HPM_P1;HPM_P2
2023/10/31 00:00:37;;;;;;;2.00;0.70;;;;;;;8.80;100.00;92527.19;5057679;28;20036;-63
2023/10/31 00:03:03;;;;;;;1.75;0.80;;;;;;;8.68;100.00;92527.94;5069035;28;20040;-62
2023/10/31 00:05:30;;;;;;;3.00;1.15;;;;;;;8.60;100.00;92535.59;5087341;28;20035;-63
2023/10/31 00:07:57;;;;;;;2.35;1.30;;;;;;;8.55;100.00;92539.66;5087084;28;20050;-63
2023/10/31 00:10:24;;;;;;;2.70;1.00;;;;;;;8.64;100.00;92530.03;5087075;28;20108;-62
2023/10/31 00:12:50;;;;;;;2.40;1.03;;;;;;;8.61;100.00;92528.91;5068977;28;20044;-61
2023/10/31 00:15:17;;;;;;;2.00;0.77;;;;;;;8.64;100.00;92524.56;5087439;28;20259;-61
2023/10/31 00:17:44;;;;;;;1.85;0.95;;;;;;;8.67;100.00;92524.44;5086262;28;20691;-61
2023/10/31 00:20:11;;;;;;;1.80;0.70;;;;;;;8.65;100.00;92520.59;5080578;28;20048;-63
2023/10/31 00:22:38;;;;;;;2.05;1.00;;;;;;;8.64;100.00;92511.63;5086436;28;20404;-63
2023/10/31 00:25:05;;;;;;;2.23;0.80;;;;;;;8.62;100.00;92513.28;5087264;28;20418;-62
2023/10/31 00:27:32;;;;;;;1.83;0.80;;;;;;;8.56;100.00;92522.03;5086834;28;20074;-61
2023/10/31 00:29:59;;;;;;;3.10;1.77;;;;;;;8.61;100.00;92526.16;5091914;28;20036;-62
2023/10/31 00:32:26;;;;;;;5.28;2.70;;;;;;;8.49;100.00;92535.13;5087332;28;20799;-61
2023/10/31 00:34:52;;;;;;;2.05;1.02;;;;;;;8.42;100.00;92544.31;5051827;28;20050;-62
2023/10/31 00:37:19;;;;;;;2.93;1.37;;;;;;;8.44;100.00;92549.34;5067016;28;20056;-62
2023/10/31 00:39:46;;;;;;;2.65;1.27;;;;;;;8.53;100.00;92542.06;5086646;28;20048;-63
2023/10/31 00:42:13;;;;;;;2.20;1.20;;;;;;;8.61;100.00;92537.09;5087273;28;20477;-61
2023/10/31 00:44:39;;;;;;;2.17;1.08;;;;;;;8.52;100.00;92547.94;5086476;28;20054;-61
2023/10/31 00:47:06;;;;;;;3.08;0.85;;;;;;;8.44;100.00;92544.66;5087112;28;20040;-64
2023/10/31 00:49:33;;;;;;;3.60;0.90;;;;;;;8.38;100.00;92544.38;5087317;28;20040;-62
2023/10/31 00:52:00;;;;;;;2.60;0.73;;;;;;;8.42;100.00;92558.00;5074007;28;22098;-61
2023/10/31 00:54:27;;;;;;;2.55;0.95;;;;;;;8.40;100.00;92550.19;5075006;28;20063;-62
2023/10/31 00:56:53;;;;;;;16.98;8.30;;;;;;;8.39;100.00;92556.88;5077393;28;20052;-62
2023/10/31 00:59:20;;;;;;;6.90;3.65;;;;;;;8.46;100.00;92566.09;5078704;28;20043;-61
2023/10/31 01:01:47;;;;;;;4.17;2.13;;;;;;;8.41;100.00;92567.41;5076305;28;20040;-64
2023/10/31 01:04:13;;;;;;;1.75;0.90;;;;;;;8.30;100.00;92573.13;5075093;28;20573;-62
2023/10/31 01:06:43;;;;;;;3.17;1.40;;;;;;;8.32;100.00;92561.78;5074989;28;20040;-61
2023/10/31 01:09:11;;;;;;;2.00;0.98;;;;;;;8.37;100.00;92562.00;5078560;28;20050;-62
2023/10/31 01:11:38;;;;;;;1.88;0.88;;;;;;;8.42;100.00;92558.00;5077420;28;20054;-61
2023/10/31 01:14:05;;;;;;;3.50;2.10;;;;;;;8.48;100.00;92563.69;5066059;28;20147;-61
2023/10/31 01:16:31;;;;;;;3.25;1.00;;;;;;;8.33;100.00;92566.03;5075160;28;20101;-61
2023/10/31 01:18:58;;;;;;;31.80;17.58;;;;;;;8.45;100.00;92581.75;5075091;28;20400;-62
2023/10/31 01:21:25;;;;;;;5.72;2.90;;;;;;;8.52;100.00;92584.25;5060493;28;20038;-62
2023/10/31 01:23:51;;;;;;;2.03;0.90;;;;;;;8.28;100.00;92594.66;5054527;28;20041;-64
2023/10/31 01:26:18;;;;;;;1.93;0.90;;;;;;;8.29;100.00;92603.63;5082073;28;20036;-62
2023/10/31 01:28:45;;;;;;;2.38;1.20;;;;;;;8.39;100.00;92616.22;5087481;28;20043;-61
2023/10/31 01:31:12;;;;;;;3.55;1.20;;;;;;;8.44;100.00;92620.44;5076866;28;20037;-63
2023/10/31 01:33:38;;;;;;;2.13;0.98;;;;;;;8.45;100.00;92622.75;5068955;28;20052;-64
2023/10/31 01:36:06;;;;;;;2.00;1.10;;;;;;;8.46;100.00;92624.25;5074349;28;20046;-62
2023/10/31 01:38:33;;;;;;;1.90;0.90;;;;;;;8.38;100.00;92617.44;5085485;28;20127;-62
2023/10/31 01:41:00;;;;;;;2.25;0.90;;;;;;;8.04;100.00;92632.41;5089165;28;20829;-65
2023/10/31 01:43:44;;;;;;;2.20;0.90;;;;;;;7.85;100.00;92636.00;5090037;28;20464;-65
2023/10/31 01:46:11;;;;;;;2.20;0.90;;;;;;;8.00;100.00;92632.47;5060783;28;20673;-65
2023/10/31 01:48:38;;;;;;;2.28;0.90;;;;;;;8.07;100.00;92634.28;5055065;28;20046;-67
2023/10/31 01:51:05;;;;;;;1.83;1.00;;;;;;;8.14;100.00;92623.16;5090043;28;20071;-64
2023/10/31 01:53:34;;;;;;;1.80;0.90;;;;;;;8.21;100.00;92619.47;5090086;28;20499;-66
2023/10/31 01:56:02;;;;;;;2.10;1.00;;;;;;;8.12;100.00;92628.28;5076969;28;20712;-63
2023/10/31 01:58:37;;;;;;;1.98;1.08;;;;;;;8.11;100.00;92626.75;5056362;28;20049;-63
2023/10/31 02:01:05;;;;;;;1.90;1.00;;;;;;;8.09;100.00;92629.16;5072889;28;20473;-64
2023/10/31 02:03:33;;;;;;;1.83;0.93;;;;;;;8.16;100.00;92630.91;5081682;28;20466;-64
2023/10/31 02:06:00;;;;;;;1.90;0.95;;;;;;;8.13;100.00;92635.28;5066574;28;20109;-63
2023/10/31 02:08:27;;;;;;;2.00;1.00;;;;;;;8.16;100.00;92634.41;5077895;28;20044;-63
2023/10/31 02:10:54;;;;;;;3.17;1.05;;;;;;;8.27;100.00;92633.34;5084976;28;20763;-66
2023/10/31 02:13:20;;;;;;;2.20;1.00;;;;;;;8.30;100.00;92632.50;5083965;28;20058;-65
2023/10/31 02:15:48;;;;;;;21.80;11.10;;;;;;;8.09;100.00;92622.91;5062550;28;20091;-64
2023/10/31 02:18:15;;;;;;;3.53;1.85;;;;;;;8.11;100.00;92615.03;5083992;28;20051;-63
2023/10/31 02:20:42;;;;;;;2.63;1.30;;;;;;;8.13;100.00;92612.63;5083722;28;20096;-64
2023/10/31 02:23:08;;;;;;;2.53;1.13;;;;;;;8.00;100.00;92618.81;5084782;28;20513;-65
2023/10/31 02:25:35;;;;;;;2.50;1.10;;;;;;;8.03;100.00;92614.47;5085661;28;20123;-64
2023/10/31 02:28:02;;;;;;;1.93;0.70;;;;;;;8.08;100.00;92613.19;5080659;28;20473;-64
2023/10/31 02:30:29;;;;;;;2.13;0.90;;;;;;;8.07;100.00;92601.50;5089185;28;20052;-63
2023/10/31 02:32:56;;;;;;;2.17;1.10;;;;;;;8.05;100.00;92611.31;5077327;28;20041;-63
2023/10/31 02:35:23;;;;;;;2.28;1.00;;;;;;;7.96;100.00;92618.16;5076567;28;20052;-64
2023/10/31 02:37:49;;;;;;;1.80;0.90;;;;;;;7.94;100.00;92622.53;5078646;28;20048;-64
2023/10/31 02:40:16;;;;;;;4.03;1.00;;;;;;;7.86;100.00;92632.84;5082710;28;20048;-64
2023/10/31 02:42:43;;;;;;;2.08;1.00;;;;;;;7.77;100.00;92641.66;5077797;28;20033;-64
2023/10/31 02:45:10;;;;;;;2.25;0.80;;;;;;;7.73;100.00;92635.53;5080672;28;20078;-66
2023/10/31 02:47:37;;;;;;;2.30;1.00;;;;;;;7.49;100.00;92645.13;5079825;28;20129;-63
2023/10/31 02:50:05;;;;;;;3.55;1.20;;;;;;;7.53;100.00;92652.00;5076782;28;20413;-65
2023/10/31 02:52:32;;;;;;;2.80;1.40;;;;;;;7.50;100.00;92655.59;5059204;28;20138;-65
2023/10/31 02:54:59;;;;;;;3.50;1.70;;;;;;;7.38;100.00;92661.72;5076123;28;20125;-64
2023/10/31 02:57:26;;;;;;;4.75;2.10;;;;;;;7.42;100.00;92667.88;5076954;28;20048;-63
2023/10/31 02:59:52;;;;;;;3.08;1.30;;;;;;;7.38;100.00;92665.25;5079085;28;20515;-64
2023/10/31 03:02:19;;;;;;;3.22;1.40;;;;;;;7.40;100.00;92675.72;5080294;28;20050;-63
2023/10/31 03:04:46;;;;;;;2.27;1.00;;;;;;;7.36;100.00;92678.53;5079396;28;20035;-64
2023/10/31 03:07:13;;;;;;;2.63;0.85;;;;;;;7.36;100.00;92672.28;5079893;28;20059;-63
2023/10/31 03:09:40;;;;;;;3.22;1.40;;;;;;;7.42;100.00;92672.56;5087705;28;20505;-68
2023/10/31 03:12:06;;;;;;;2.65;1.20;;;;;;;7.46;100.00;92673.25;5062520;28;20048;-63
2023/10/31 03:14:33;;;;;;;2.17;1.00;;;;;;;7.53;100.00;92670.38;5080443;28;20040;-63
2023/10/31 03:17:00;;;;;;;2.13;1.10;;;;;;;7.57;100.00;92674.53;5075204;28;20435;-63
2023/10/31 03:19:26;;;;;;;2.40;0.75;;;;;;;7.57;100.00;92671.81;5074499;28;20550;-64
2023/10/31 03:21:53;;;;;;;1.80;0.98;;;;;;;7.56;100.00;92678.44;5049645;28;20048;-65
2023/10/31 03:24:20;;;;;;;2.05;0.77;;;;;;;7.71;100.00;92678.13;5074353;28;20050;-64
2023/10/31 03:26:47;;;;;;;2.08;0.82;;;;;;;7.64;100.00;92679.03;5077185;28;20036;-63
2023/10/31 03:29:13;;;;;;;2.70;0.70;;;;;;;7.58;100.00;92681.50;5087808;28;20083;-64
2023/10/31 03:31:40;;;;;;;1.65;0.70;;;;;;;7.54;100.00;92674.63;5079194;28;20048;-68
2023/10/31 03:34:07;;;;;;;2.80;0.80;;;;;;;7.51;100.00;92667.28;5061920;28;20048;-63
2023/10/31 03:36:33;;;;;;;2.42;0.75;;;;;;;7.54;100.00;92667.19;5072508;28;20048;-64
2023/10/31 03:39:00;;;;;;;2.10;0.90;;;;;;;7.62;100.00;92667.78;5049849;28;20529;-65
2023/10/31 03:41:27;;;;;;;1.70;0.80;;;;;;;7.54;100.00;92672.66;5075453;28;20100;-64
2023/10/31 03:43:54;;;;;;;2.17;0.80;;;;;;;7.52;100.00;92677.75;5076108;28;20040;-64
2023/10/31 03:46:20;;;;;;;2.17;0.80;;;;;;;7.50;100.00;92682.88;5075580;28;20052;-64
2023/10/31 03:48:47;;;;;;;2.03;1.00;;;;;;;7.46;100.00;92681.44;5077069;28;20767;-65
2023/10/31 03:51:14;;;;;;;1.65;0.70;;;;;;;7.48;100.00;92685.28;5079649;28;20097;-63
2023/10/31 03:53:41;;;;;;;1.80;0.80;;;;;;;7.47;100.00;92683.75;5077888;28;20044;-69
2023/10/31 03:56:07;;;;;;;1.77;0.80;;;;;;;7.61;100.00;92688.09;5075292;28;20041;-63
2023/10/31 03:58:34;;;;;;;3.55;0.90;;;;;;;7.55;100.00;92684.34;5075691;28;20048;-62
2023/10/31 04:01:02;;;;;;;1.70;0.85;;;;;;;7.54;100.00;92680.84;5078428;28;20039;-63
2023/10/31 04:03:29;;;;;;;1.90;0.70;;;;;;;7.57;100.00;92677.25;5088117;28;20048;-64
2023/10/31 04:05:55;;;;;;;2.10;0.87;;;;;;;7.51;100.00;92683.66;5087207;28;20046;-63
2023/10/31 04:08:22;;;;;;;2.97;0.90;;;;;;;7.43;100.00;92688.53;5087179;28;20404;-63
2023/10/31 04:10:49;;;;;;;1.60;0.70;;;;;;;7.49;100.00;92681.34;5086480;28;20408;-63
2023/10/31 04:13:16;;;;;;;1.73;0.82;;;;;;;7.48;100.00;92682.53;5087507;28;20092;-63
2023/10/31 04:15:42;;;;;;;2.15;0.85;;;;;;;7.41;100.00;92685.44;5086770;28;20044;-66
2023/10/31 04:18:09;;;;;;;2.20;0.80;;;;;;;7.53;100.00;92690.22;5086994;28;20405;-66
2023/10/31 04:20:36;;;;;;;1.60;0.70;;;;;;;7.55;100.00;92693.31;5087014;28;20108;-63
2023/10/31 04:23:03;;;;;;;2.28;0.82;;;;;;;7.50;100.00;92693.03;5087154;28;20059;-64
2023/10/31 04:25:30;;;;;;;2.90;0.80;;;;;;;7.57;100.00;92704.56;5069444;28;20039;-63
2023/10/31 04:27:57;;;;;;;3.42;0.82;;;;;;;7.55;100.00;92703.47;5068897;28;20044;-62
2023/10/31 04:30:24;;;;;;;5.63;2.17;;;;;;;7.55;100.00;92704.22;5088798;28;20055;-63
2023/10/31 04:32:51;;;;;;;2.47;1.05;;;;;;;7.38;100.00;92697.22;5086360;28;20050;-64
2023/10/31 04:35:18;;;;;;;3.72;0.90;;;;;;;7.25;100.00;92699.84;5086713;28;20092;-61
2023/10/31 04:37:45;;;;;;;2.15;1.00;;;;;;;7.25;100.00;92699.84;5086558;28;20181;-61
2023/10/31 04:40:12;;;;;;;1.98;1.10;;;;;;;7.29;100.00;92702.50;5087224;28;20044;-64
2023/10/31 04:42:43;;;;;;;2.20;0.70;;;;;;;7.20;100.00;92697.59;5086739;28;20040;-66
2023/10/31 04:45:10;;;;;;;2.55;0.90;;;;;;;7.32;100.00;92712.56;5087019;28;20052;-63
2023/10/31 04:47:36;;;;;;;2.60;0.88;;;;;;;7.33;100.00;92720.31;5086403;28;20051;-66
2023/10/31 04:50:03;;;;;;;2.10;0.80;;;;;;;7.31;100.00;92728.16;5086727;28;20044;-62
2023/10/31 04:52:30;;;;;;;2.15;1.35;;;;;;;7.13;100.00;92734.00;5087448;28;20489;-64
2023/10/31 04:54:57;;;;;;;2.50;0.80;;;;;;;7.12;100.00;92737.16;5085815;28;20077;-62
2023/10/31 04:57:24;;;;;;;2.03;1.10;;;;;;;7.20;100.00;92752.97;5088148;28;20051;-63
2023/10/31 04:59:51;;;;;;;2.50;1.08;;;;;;;7.15;100.00;92755.41;5090058;28;20054;-61
2023/10/31 05:02:18;;;;;;;3.08;1.05;;;;;;;7.20;100.00;92763.88;5088687;28;20430;-64
2023/10/31 05:04:45;;;;;;;2.45;1.20;;;;;;;7.14;100.00;92754.66;5090299;28;20104;-64
2023/10/31 05:07:12;;;;;;;2.77;1.30;;;;;;;7.23;100.00;92753.31;5090870;28;20044;-64
2023/10/31 05:09:41;;;;;;;2.70;1.50;;;;;;;7.11;100.00;92766.41;5090472;28;20036;-61
2023/10/31 05:12:11;;;;;;;3.03;1.48;;;;;;;7.11;100.00;92768.38;5090995;28;20050;-63
2023/10/31 05:14:39;;;;;;;3.00;1.50;;;;;;;6.97;100.00;92767.44;5090285;28;20051;-64
2023/10/31 05:17:06;;;;;;;3.45;1.90;;;;;;;6.98;100.00;92770.94;5090585;28;20139;-64
2023/10/31 05:19:33;;;;;;;2.50;1.20;;;;;;;7.03;100.00;92775.16;5056146;28;20058;-61
2023/10/31 05:21:59;;;;;;;2.38;1.17;;;;;;;7.07;100.00;92773.13;5071275;28;20843;-63
2023/10/31 05:24:26;;;;;;;4.57;1.75;;;;;;;7.10;100.00;92769.53;5090807;28;20055;-63
2023/10/31 05:26:53;;;;;;;3.15;1.70;;;;;;;6.93;100.00;92774.19;5089419;28;20109;-62
2023/10/31 05:29:20;;;;;;;5.65;3.50;;;;;;;7.01;100.00;92781.03;5090336;28;20066;-63
2023/10/31 05:31:47;;;;;;;6.40;3.10;;;;;;;7.04;100.00;92777.44;5089448;28;20042;-65
2023/10/31 05:34:14;;;;;;;4.38;2.00;;;;;;;7.05;100.00;92775.50;5090706;28;20050;-62
2023/10/31 05:36:40;;;;;;;3.25;1.40;;;;;;;6.93;100.00;92780.41;5089873;28;20044;-64
2023/10/31 05:39:08;;;;;;;3.83;1.70;;;;;;;6.99;100.00;92769.75;5089460;28;20051;-63
2023/10/31 05:41:35;;;;;;;3.95;1.50;;;;;;;6.97;100.00;92781.09;5071508;28;20048;-62
2023/10/31 05:44:02;;;;;;;2.87;1.30;;;;;;;7.10;100.00;92780.44;5089336;28;20042;-63
2023/10/31 05:46:29;;;;;;;3.00;1.40;;;;;;;7.11;100.00;92777.31;5090426;28;20070;-62
2023/10/31 05:48:55;;;;;;;3.10;1.30;;;;;;;7.19;100.00;92781.44;5089107;28;20056;-65
2023/10/31 05:51:25;;;;;;;2.88;1.65;;;;;;;7.13;100.00;92769.47;5089900;28;20052;-62
2023/10/31 05:53:52;;;;;;;4.25;1.60;;;;;;;7.14;100.00;92781.16;5088937;28;20036;-65
2023/10/31 05:56:18;;;;;;;4.07;2.10;;;;;;;7.07;100.00;92784.03;5089138;28;20056;-64
2023/10/31 05:58:45;;;;;;;3.67;1.85;;;;;;;7.03;100.00;92786.81;5067679;28;20477;-68
2023/10/31 06:01:12;;;;;;;3.88;1.70;;;;;;;6.93;100.00;92790.53;5089981;28;20128;-66
2023/10/31 06:03:43;;;;;;;4.70;1.70;;;;;;;6.76;100.00;92795.94;5089455;28;20047;-65
2023/10/31 06:06:11;;;;;;;3.42;1.65;;;;;;;6.65;100.00;92803.53;5089863;28;20044;-68
2023/10/31 06:08:39;;;;;;;3.87;1.30;;;;;;;6.63;100.00;92800.44;5088598;28;20493;-66
2023/10/31 06:11:06;;;;;;;7.03;2.67;;;;;;;6.53;100.00;92806.88;5089328;28;20108;-67
2023/10/31 06:13:33;;;;;;;4.53;2.30;;;;;;;6.58;100.00;92804.44;5089819;28;20040;-63
2023/10/31 06:16:00;;;;;;;133.30;44.97;;;;;;;6.62;100.00;92793.47;5017521;28;20033;-65
2023/10/31 06:18:28;;;;;;;15.50;5.43;;;;;;;6.66;100.00;92807.00;5084711;28;20101;-66
2023/10/31 06:20:55;;;;;;;3.40;1.57;;;;;;;6.70;100.00;92810.44;5088818;28;20472;-65
2023/10/31 06:23:22;;;;;;;5.30;2.40;;;;;;;6.64;100.00;92810.19;5089168;28;20054;-64
2023/10/31 06:25:49;;;;;;;5.60;2.72;;;;;;;6.46;100.00;92817.88;5088965;28;20048;-66
2023/10/31 06:28:16;;;;;;;6.68;4.90;;;;;;;6.37;100.00;92816.47;5089455;28;20047;-65
2023/10/31 06:30:42;;;;;;;7.10;2.40;;;;;;;6.40;100.00;92817.59;5089244;28;20040;-67
2023/10/31 06:33:11;;;;;;;4.03;1.20;;;;;;;6.49;100.00;92823.28;5089095;28;20040;-66
2023/10/31 06:35:39;;;;;;;4.20;1.50;;;;;;;6.55;100.00;92831.75;5088461;28;20044;-65
2023/10/31 06:38:05;;;;;;;3.55;1.30;;;;;;;6.54;100.00;92828.25;5071266;28;20054;-67
2023/10/31 06:40:32;;;;;;;3.25;1.30;;;;;;;6.58;100.00;92826.25;5087839;28;20150;-65
2023/10/31 06:43:01;;;;;;;3.40;1.50;;;;;;;6.73;100.00;92839.59;5069822;28;20036;-69
2023/10/31 06:45:28;;;;;;;3.17;1.50;;;;;;;6.82;100.00;92842.53;5089341;28;20070;-66
2023/10/31 06:47:55;;;;;;;10.38;5.60;;;;;;;6.81;100.00;92849.19;5088197;28;20059;-66
2023/10/31 06:50:22;;;;;;;8.35;4.80;;;;;;;6.87;100.00;92844.03;5070850;28;20447;-64
2023/10/31 06:52:49;;;;;;;7.65;3.75;;;;;;;6.96;100.00;92855.16;5087888;28;20052;-66
2023/10/31 06:55:16;;;;;;;7.07;3.92;;;;;;;6.90;100.00;92865.00;5088886;28;20158;-64
2023/10/31 06:57:43;;;;;;;6.97;3.20;;;;;;;6.96;100.00;92858.66;5087689;28;20044;-64
2023/10/31 07:00:13;;;;;;;5.32;2.60;;;;;;;6.96;100.00;92855.16;5088570;28;20052;-65
2023/10/31 07:02:41;;;;;;;5.20;2.55;;;;;;;6.86;100.00;92856.13;5085920;28;20036;-64
2023/10/31 07:05:08;;;;;;;7.00;4.20;;;;;;;6.97;100.00;92865.66;5087677;28;20339;-65
2023/10/31 07:07:35;;;;;;;6.03;3.47;;;;;;;7.07;100.00;92863.91;5088300;28;20382;-66
2023/10/31 07:10:02;;;;;;;6.33;2.70;;;;;;;7.16;100.00;92872.31;5087958;28;20096;-66
2023/10/31 07:12:29;;;;;;;4.65;2.10;;;;;;;7.18;100.00;92874.59;5088622;28;20035;-65
2023/10/31 07:14:58;;;;;;;4.47;2.03;;;;;;;7.17;100.00;92884.00;5087559;28;20588;-65
2023/10/31 07:17:26;;;;;;;4.07;1.90;;;;;;;7.16;100.00;92888.69;5088299;28;20488;-67
2023/10/31 07:19:53;;;;;;;4.93;2.08;;;;;;;7.24;100.00;92885.81;5068197;28;20528;-65
2023/10/31 07:22:19;;;;;;;3.90;1.83;;;;;;;7.32;100.00;92884.47;5087846;28;20415;-65
2023/10/31 07:24:46;;;;;;;3.85;2.00;;;;;;;7.29;100.00;92894.28;5087868;28;20054;-63
2023/10/31 07:27:13;;;;;;;4.95;1.98;;;;;;;7.39;100.00;92889.81;5088242;28;20052;-64
2023/10/31 07:29:41;;;;;;;5.00;2.00;;;;;;;7.39;100.00;92885.13;5087799;28;20048;-64
2023/10/31 07:32:08;;;;;;;6.10;3.10;;;;;;;7.48;100.00;92884.53;5087834;28;20298;-65
2023/10/31 07:34:41;;;;;;;6.33;3.23;;;;;;;7.42;100.00;92880.78;5088215;28;20828;-64
2023/10/31 07:37:08;;;;;;;5.15;2.92;;;;;;;7.42;100.00;92899.88;5084162;28;20040;-64
2023/10/31 07:39:34;;;;;;;5.15;2.50;;;;;;;7.29;100.00;92898.97;5087652;28;20052;-63
2023/10/31 07:42:01;;;;;;;10.55;3.80;;;;;;;7.27;100.00;92902.13;5088137;28;20485;-63
2023/10/31 07:44:28;;;;;;;10.82;4.85;;;;;;;7.41;100.00;92906.53;5088417;28;20044;-63
2023/10/31 07:46:55;;;;;;;11.90;4.80;;;;;;;7.45;100.00;92901.78;5087229;28;20134;-63
2023/10/31 07:49:21;;;;;;;6.30;2.60;;;;;;;7.63;100.00;92906.13;5088104;28;20050;-63
2023/10/31 07:51:48;;;;;;;3.97;1.90;;;;;;;7.68;100.00;92900.16;5087196;28;20044;-63
2023/10/31 07:54:16;;;;;;;3.85;2.10;;;;;;;7.73;100.00;92896.94;5087939;28;20046;-66
2023/10/31 07:56:43;;;;;;;5.32;2.25;;;;;;;7.89;100.00;92888.78;5087553;28;20377;-66
2023/10/31 07:59:10;;;;;;;6.07;3.10;;;;;;;7.96;100.00;92891.34;5087615;28;20056;-62
2023/10/31 08:01:38;;;;;;;8.43;5.00;;;;;;;7.95;100.00;92899.97;5085288;28;20036;-66
2023/10/31 08:04:05;;;;;;;8.82;4.60;;;;;;;8.01;100.00;92898.28;5087388;28;20443;-63
2023/10/31 08:06:31;;;;;;;10.30;4.65;;;;;;;8.20;100.00;92894.72;5087709;28;20058;-64
2023/10/31 08:08:58;;;;;;;6.63;3.33;;;;;;;8.40;100.00;92900.13;5087174;28;20036;-65
2023/10/31 08:11:25;;;;;;;6.47;3.10;;;;;;;8.25;100.00;92898.94;5069947;28;20056;-65
2023/10/31 08:13:52;;;;;;;6.88;3.00;;;;;;;8.29;100.00;92896.09;5087074;28;20040;-67
2023/10/31 08:16:19;;;;;;;7.00;3.33;;;;;;;7.85;100.00;92901.75;5087820;28;20089;-65
2023/10/31 08:18:46;;;;;;;5.32;2.80;;;;;;;8.22;100.00;92907.97;5087058;28;20040;-66
2023/10/31 08:21:13;;;;;;;4.57;2.58;;;;;;;8.42;100.00;92909.91;5087505;28;20070;-64
2023/10/31 08:23:40;;;;;;;5.20;2.27;;;;;;;8.56;100.00;92915.78;5086427;28;20048;-64
2023/10/31 08:26:07;;;;;;;7.13;2.50;;;;;;;8.61;100.00;92914.50;5087181;28;20048;-65
2023/10/31 08:28:34;;;;;;;5.38;2.50;;;;;;;8.71;100.00;92913.50;5087360;28;20048;-66
2023/10/31 08:31:00;;;;;;;7.13;2.30;;;;;;;8.58;100.00;92905.19;5069774;28;20066;-63
2023/10/31 08:33:27;;;;;;;5.03;1.85;;;;;;;8.44;100.00;92913.72;5079077;28;20074;-64
2023/10/31 08:35:54;;;;;;;5.10;1.60;;;;;;;8.31;100.00;92912.81;5075576;28;20039;-65
2023/10/31 08:38:20;;;;;;;5.75;1.80;;;;;;;8.59;100.00;92912.22;5077693;28;20044;-64
2023/10/31 08:40:58;;;;;;;4.07;1.75;;;;;;;8.62;100.00;92909.81;5073317;28;20044;-64
2023/10/31 08:43:26;;;;;;;4.57;2.10;;;;;;;8.31;100.00;92921.03;5087519;28;20048;-63
2023/10/31 08:45:53;;;;;;;4.85;1.70;;;;;;;8.32;100.00;92930.78;5086531;28;20043;-69
2023/10/31 08:48:19;;;;;;;3.90;1.90;;;;;;;8.29;100.00;92920.69;5087143;28;20401;-67
2023/10/31 08:50:46;;;;;;;4.22;2.03;;;;;;;8.38;100.00;92926.34;5087002;28;20063;-65
2023/10/31 08:53:13;;;;;;;3.50;1.70;;;;;;;8.38;100.00;92921.63;5087194;28;20063;-66
2023/10/31 08:55:43;;;;;;;4.85;1.67;;;;;;;8.54;100.00;92917.41;5086894;28;20048;-67
2023/10/31 08:58:14;;;;;;;5.20;2.10;;;;;;;8.72;100.00;92919.72;5087117;28;20056;-66
2023/10/31 09:00:41;;;;;;;3.50;1.50;;;;;;;8.55;100.00;92919.72;5086974;28;20048;-64
2023/10/31 09:03:08;;;;;;;4.15;1.30;;;;;;;8.52;100.00;92923.31;5087000;28;20054;-64
2023/10/31 09:05:35;;;;;;;4.97;2.00;;;;;;;8.63;100.00;92923.03;5086929;28;20040;-65
2023/10/31 09:08:02;;;;;;;4.82;1.90;;;;;;;8.86;100.00;92918.63;5068789;28;20043;-67
2023/10/31 09:10:29;;;;;;;3.50;1.77;;;;;;;8.74;100.00;92925.53;5087084;28;20037;-66
2023/10/31 09:12:55;;;;;;;4.93;1.73;;;;;;;8.55;100.00;92932.63;5086365;28;20342;-64
2023/10/31 09:15:22;;;;;;;5.43;2.88;;;;;;;8.85;100.00;92922.53;5087194;28;20452;-64
2023/10/31 09:17:49;;;;;;;4.68;2.40;;;;;;;9.08;100.00;92935.25;5086322;28;21386;-64
2023/10/31 09:20:17;;;;;;;4.55;2.50;;;;;;;9.17;100.00;92922.47;5087105;28;20465;-64
2023/10/31 09:22:44;;;;;;;68.97;20.38;;;;;;;9.39;100.00;92922.69;5085775;28;20524;-65
2023/10/31 09:25:10;;;;;;;11.33;4.03;;;;;;;9.68;100.00;92923.88;5086870;28;20044;-64
2023/10/31 09:27:39;;;;;;;51.28;16.02;;;;;;;9.54;100.00;92912.13;5086230;28;20036;-66
2023/10/31 09:30:07;;;;;;;31.55;9.95;;;;;;;9.70;100.00;92918.72;5094266;28;20044;-65
2023/10/31 09:32:33;;;;;;;17.15;6.05;;;;;;;9.84;100.00;92912.88;5086738;28;20040;-66
2023/10/31 09:35:00;;;;;;;8.60;3.80;;;;;;;9.98;100.00;92912.47;5059051;28;20928;-66
2023/10/31 09:37:27;;;;;;;11.23;4.17;;;;;;;9.64;100.00;92923.22;5048901;28;20542;-67
2023/10/31 09:39:54;;;;;;;24.70;9.45;;;;;;;9.94;100.00;92920.03;5070051;28;20044;-64
2023/10/31 09:42:21;;;;;;;6.63;2.63;;;;;;;9.63;100.00;92922.44;5066445;28;20454;-67
2023/10/31 09:44:47;;;;;;;13.48;5.40;;;;;;;10.04;100.00;92925.59;5069463;28;20082;-66
2023/10/31 09:47:15;;;;;;;9.32;3.88;;;;;;;10.00;100.00;92926.50;5069847;28;20048;-66
2023/10/31 09:49:42;;;;;;;5.50;2.27;;;;;;;10.32;100.00;92926.75;5069641;28;20044;-65
2023/10/31 09:52:10;;;;;;;3.80;1.40;;;;;;;9.96;100.00;92925.84;5052022;28;20101;-66
2023/10/31 09:54:39;;;;;;;5.20;2.20;;;;;;;9.78;100.00;92929.06;5069327;28;20047;-68
2023/10/31 09:57:07;;;;;;;4.05;1.65;;;;;;;9.76;100.00;92928.75;5069785;28;20098;-64
2023/10/31 09:59:34;;;;;;;3.45;1.63;;;;;;;9.95;100.00;92927.03;5067157;28;20058;-64
2023/10/31 10:02:01;;;;;;;4.27;1.20;;;;;;;9.77;100.00;92929.50;5068319;28;20351;-66
2023/10/31 10:04:29;;;;;;;2.50;0.90;;;;;;;9.74;100.00;92927.66;5069613;28;20041;-64
2023/10/31 10:07:01;;;;;;;4.53;1.65;;;;;;;9.58;100.00;92929.22;5068320;28;20430;-65
2023/10/31 10:09:29;;;;;;;2.38;0.90;;;;;;;9.53;100.00;92932.50;5051846;28;20053;-65
2023/10/31 10:11:56;;;;;;;2.25;1.30;;;;;;;9.48;100.00;92926.81;5068731;28;20041;-66
2023/10/31 10:14:23;;;;;;;2.93;1.33;;;;;;;9.49;100.00;92928.31;5051631;28;20173;-64
2023/10/31 10:16:50;;;;;;;2.92;1.02;;;;;;;9.88;100.00;92929.97;5068633;28;20400;-66
2023/10/31 10:19:19;;;;;;;2.95;1.00;;;;;;;10.35;100.00;92929.41;5069476;28;20052;-65
2023/10/31 10:21:57;;;;;;;2.65;1.17;;;;;;;10.45;100.00;92922.06;5068388;28;20041;-66
2023/10/31 10:24:24;;;;;;;3.08;1.00;;;;;;;10.43;100.00;92934.69;5069437;28;20045;-64
2023/10/31 10:26:52;;;;;;;2.50;1.10;;;;;;;10.85;100.00;92935.31;5050918;28;20044;-64
2023/10/31 10:29:19;;;;;;;2.42;1.20;;;;;;;10.95;100.00;92939.69;5083898;28;20428;-64
2023/10/31 10:31:46;;;;;;;2.75;1.10;;;;;;;11.20;100.00;92944.34;5087201;28;20044;-64
2023/10/31 10:34:15;;;;;;;2.17;1.00;;;;;;;11.13;100.00;92941.84;5077444;28;20049;-64
2023/10/31 10:36:49;;;;;;;2.63;1.10;;;;;;;10.89;100.00;92940.69;5077830;28;20052;-65
2023/10/31 10:39:20;;;;;;;2.67;1.00;;;;;;;10.44;100.00;92945.19;5083532;28;20308;-63
2023/10/31 10:41:53;;;;;;;4.70;1.20;;;;;;;10.89;100.00;92943.44;5078575;28;20044;-67
2023/10/31 10:44:35;;;;;;;2.63;1.17;;;;;;;11.05;100.00;92954.28;5059654;28;20045;-65
2023/10/31 10:47:06;;;;;;;3.00;1.20;;;;;;;11.09;100.00;92949.44;5076039;28;20124;-65
2023/10/31 10:49:36;;;;;;;2.78;1.10;;;;;;;11.03;100.00;92939.44;5077109;28;20044;-64
2023/10/31 10:52:09;;;;;;;2.80;1.00;;;;;;;10.96;100.00;92952.19;5067270;28;20695;-66
2023/10/31 10:54:52;;;;;;;1.90;0.85;;;;;;;11.30;100.00;92950.69;5068451;28;20049;-65
2023/10/31 10:57:42;;;;;;;3.65;0.90;;;;;;;11.46;100.00;92946.28;5063412;28;20056;-63
2023/10/31 11:00:12;;;;;;;2.30;0.80;;;;;;;10.95;100.00;92953.41;5070409;28;20356;-63
2023/10/31 11:02:43;;;;;;;4.93;1.08;;;;;;;10.84;100.00;92954.97;5088631;28;20044;-64
2023/10/31 11:05:10;;;;;;;3.50;1.17;;;;;;;11.10;100.00;92953.72;5088368;28;20055;-63
2023/10/31 11:07:38;;;;;;;3.63;1.30;;;;;;;11.35;100.00;92941.16;5088619;28;20040;-63
2023/10/31 11:10:06;;;;;;;4.70;2.38;;;;;;;11.61;100.00;92952.81;5088073;28;20052;-64
2023/10/31 11:12:33;;;;;;;2.33;1.10;;;;;;;11.20;100.00;92954.56;5088965;28;20036;-64
2023/10/31 11:15:02;;;;;;;2.40;1.10;;;;;;;11.40;100.00;92955.06;5088283;28;20047;-63
2023/10/31 11:17:35;;;;;;;2.57;1.17;;;;;;;11.41;100.00;92958.59;5088897;28;20364;-65
2023/10/31 11:20:03;;;;;;;2.95;0.95;;;;;;;11.05;100.00;92970.75;5075353;28;20052;-63
2023/10/31 11:22:41;;;;;;;2.80;1.30;;;;;;;11.28;100.00;92971.59;5076591;28;20063;-63
2023/10/31 11:25:09;;;;;;;2.47;1.30;;;;;;;11.58;100.00;92968.19;5079973;28;20699;-64
2023/10/31 11:27:50;;;;;;;2.65;1.40;;;;;;;11.17;100.00;92961.72;5087932;28;20512;-63
2023/10/31 11:30:22;;;;;;;2.47;1.10;;;;;;;11.55;100.00;92968.31;5088259;28;20062;-62
2023/10/31 11:32:52;;;;;;;2.70;1.25;;;;;;;11.36;100.00;92967.38;5087929;28;20040;-64